Skip Navigation Links
NOAA logo - Click to go to the NOAA homepage
NOAA's National Weather Service
Alaska Aviation Weather Unit
  NWS logo - Click to go to the NWS homepage
Left Navbar Graphic     21 AKDT = 05 GMT

   
NOAA is celebrating 200 years of science, service, and stewardship. Visit the NOAA 200th celebration Web site to learn more.
USA.gov is the U.S. Government's official Web portal to all Federal, state and local government Web resources and services.
Facebook
NWS on Facebook

Important Change Regarding the AAWU Web Presence

 

Over the last several months, the AAWU has been working to navigate its webpages to a nationally supported server. Security, as well as other needs, have necessitated the change.  In the process, we have made an effort to enhance the functionality of our website, as well as some of our products. As of June 27, 2017, aawu.arh.noaa.gov will be discontinued. The new AAWU web address is weather.gov/aawu. It is now live and will run in-parallel with the old site until it is discontinued. Please send any feedback or questions regarding the new webpages to nws.ar.aawu.webauthors@noaa.gov.  Thank you for your patience during this time of transition.
AAWU Home :: Display TAF Add Bookmark
TAF PAPG 242338Z 2500/2524 VRB04KT P6SM VCSH FEW005 BKN030 OVC050
      TEMPO 2500/2504 19008KT SHRA BKN020 BKN040 OVC050
     FM250400 VRB04KT P6SM FEW008 SCT024 OVC050
     FM251000 10005KT P6SM -RA SCT020 OVC030
      AMD LTD TO CLD VIS AND WIND 2506/2515=

SPECI PAPG 242321Z 19008KT 10SM BKN029 OVC055 17/10 A3015 RMK AO2= METAR PAPG 242356Z VRB03KT 10SM BKN032 BKN038 OVC055 16/11 A3014 RMK AO2 SLP591 60004 T01610106 10167 20117 58009= METAR PAPG 250056Z VRB03KT 10SM BKN031 BKN045 OVC055 16/10 A3012 RMK AO2 SLP586 T01610100= METAR PAPG 250156Z 01005KT 10SM OVC060 16/11 A3010 RMK AO2 SLP579 T01560111= SPECI PAPG 250249Z 00000KT 9SM BKN026 OVC042 14/12 A3010 RMK AO2= METAR PAPG 250256Z 17004KT 10SM BKN032 OVC042 14/12 A3010 RMK AO2 SLP578 T01440117 56014= SPECI PAPG 250303Z 13005KT 10SM BKN025 BKN032 OVC042 15/12 A3010 RMK AO2= SPECI PAPG 250320Z 14003KT 10SM SCT025 OVC036 15/11 A3010 RMK AO2= METAR PAPG 250356Z 00000KT 10SM FEW022 BKN032 OVC039 14/12 A3009 RMK AO2 SLP574 T01440117= SPECI PAPG 250403Z 00000KT 10SM BKN029 OVC035 14/12 A3008 RMK AO2= SPECI PAPG 250425Z 28004KT 10SM SCT029 OVC042 14/12 A3008 RMK AO2= METAR PAPG 250456Z 27003KT 10SM FEW025 OVC040 14/12 A3007 RMK AO2 SLP569 T01390117=
 Alaska TAF Map

NOAA's National Weather Service
Alaska Aviation Weather Unit
6930 Sand Lake Road
Anchorage, AK 99502-1845
Disclaimer
Credits
Glossary
Privacy Policy
About Us
Career Opportunities
Contact AAWU Internet Services Site last modified: April, 17th 2012